Time;durP1;ratioP1;P1;durP2;ratioP2;P2;SDS_P1;SDS_P2;PMS_P1;PMS_P2;Temp;Humidity;BMP_temperature;BMP_pressure;BME280_temperature;BME280_humidity;BME280_pressure;Samples;Min_cycle;Max_cycle;Signal;HPM_P1;HPM_P2
2021/06/16 00:01:33;;;;;;;7.03;3.92;;;;;;;18.91;69.09;98066.00;5012740;28;20048;-76
2021/06/16 00:03:58;;;;;;;6.97;3.72;;;;;;;18.87;69.22;98059.53;5012830;28;20463;-75
2021/06/16 00:06:24;;;;;;;7.47;3.80;;;;;;;18.82;69.30;98054.22;4994946;28;20038;-76
2021/06/16 00:08:49;;;;;;;8.23;5.10;;;;;;;19.02;69.03;98060.78;5012590;28;20036;-76
2021/06/16 00:11:15;;;;;;;5.30;4.75;;;;;;;19.01;69.05;98050.88;5012638;28;20022;-76
2021/06/16 00:13:40;;;;;;;8.00;4.55;;;;;;;19.00;69.27;98052.81;5012189;28;20117;-75
2021/06/16 00:16:06;;;;;;;6.70;4.93;;;;;;;19.02;69.22;98053.28;5012354;28;20021;-75
2021/06/16 00:18:31;;;;;;;11.23;4.30;;;;;;;19.06;69.17;98056.97;5008325;28;20498;-76
2021/06/16 00:20:57;;;;;;;11.18;4.25;;;;;;;19.06;69.31;98056.97;4990842;28;20041;-75
2021/06/16 00:23:22;;;;;;;6.47;4.70;;;;;;;19.09;69.26;98049.91;4986694;28;20044;-75
2021/06/16 00:25:48;;;;;;;12.75;5.45;;;;;;;19.04;69.49;98045.44;5010969;28;20026;-77
2021/06/16 00:28:14;;;;;;;7.07;4.38;;;;;;;19.10;69.50;98046.81;5010933;28;20021;-75
2021/06/16 00:30:40;;;;;;;8.32;4.68;;;;;;;19.07;69.80;98047.50;5011351;28;20026;-75
2021/06/16 00:33:05;;;;;;;7.97;4.15;;;;;;;19.06;69.88;98050.63;5012044;28;20026;-76
2021/06/16 00:35:30;;;;;;;10.77;3.83;;;;;;;19.00;69.94;98050.06;5011764;28;20053;-75
2021/06/16 00:37:57;;;;;;;7.35;5.43;;;;;;;18.99;70.14;98053.16;5012067;28;20092;-76
2021/06/16 00:40:27;;;;;;;7.28;4.00;;;;;;;18.90;70.17;98047.75;5011715;28;20068;-76
2021/06/16 00:42:53;;;;;;;5.45;3.85;;;;;;;18.84;70.66;98043.59;4993902;28;20029;-75
2021/06/16 00:45:19;;;;;;;13.65;4.53;;;;;;;18.87;70.94;98059.53;5011756;28;20137;-76
2021/06/16 00:47:45;;;;;;;5.63;4.20;;;;;;;18.80;71.41;98050.97;5011458;28;20569;-75
2021/06/16 00:50:12;;;;;;;8.80;4.18;;;;;;;18.79;71.85;98052.16;5011729;28;20026;-75
2021/06/16 00:52:37;;;;;;;5.20;3.65;;;;;;;18.79;72.14;98054.91;5011893;28;20026;-75
2021/06/16 00:55:05;;;;;;;5.97;3.30;;;;;;;18.78;71.97;98058.03;5011797;28;20030;-75
2021/06/16 00:57:31;;;;;;;4.57;3.45;;;;;;;18.73;71.99;98052.72;5011894;28;20037;-75
2021/06/16 01:00:12;;;;;;;6.18;3.78;;;;;;;18.73;71.86;98049.94;5011216;28;20029;-76
2021/06/16 01:02:46;;;;;;;4.82;3.05;;;;;;;18.73;71.99;98057.09;5011410;28;20448;-74
2021/06/16 01:05:12;;;;;;;15.98;4.70;;;;;;;18.68;72.01;98050.97;5011500;28;20563;-75
2021/06/16 01:07:42;;;;;;;11.90;4.38;;;;;;;18.67;72.11;98054.88;4993793;28;20030;-74
2021/06/16 01:10:12;;;;;;;6.63;3.38;;;;;;;18.59;72.23;98053.84;5011755;28;20041;-74
2021/06/16 01:13:00;;;;;;;6.90;3.35;;;;;;;18.56;72.57;98048.19;5012059;28;20068;-74
2021/06/16 01:15:29;;;;;;;6.05;3.35;;;;;;;18.43;73.16;98047.34;5011588;28;20033;-74
2021/06/16 01:17:59;;;;;;;4.72;3.45;;;;;;;18.43;73.34;98050.13;4993241;28;20125;-74
2021/06/16 01:20:36;;;;;;;4.75;3.53;;;;;;;18.44;73.32;98057.28;5010737;28;20100;-74
2021/06/16 01:23:08;;;;;;;6.60;4.05;;;;;;;18.45;73.44;98058.09;5011058;28;20530;-74
2021/06/16 01:25:39;;;;;;;6.35;4.05;;;;;;;18.42;73.59;98042.94;5009754;28;20038;-74
2021/06/16 01:28:07;;;;;;;4.82;4.00;;;;;;;18.35;73.63;98050.22;5011458;28;20022;-75
2021/06/16 01:30:33;;;;;;;8.77;3.90;;;;;;;18.37;73.91;98061.75;5011264;28;20026;-74
2021/06/16 01:33:00;;;;;;;7.97;4.47;;;;;;;18.39;73.92;98051.13;5011149;28;20034;-74
2021/06/16 01:35:28;;;;;;;7.03;4.65;;;;;;;18.44;73.93;98056.47;5011239;28;20029;-74
2021/06/16 01:37:56;;;;;;;6.38;4.05;;;;;;;18.44;73.53;98050.94;5011054;28;20443;-75
2021/06/16 01:40:23;;;;;;;7.22;4.63;;;;;;;18.51;73.11;98056.75;5007467;28;20030;-77
2021/06/16 01:42:51;;;;;;;4.90;3.92;;;;;;;18.52;73.17;98050.03;5009040;28;20112;-75
2021/06/16 01:45:20;;;;;;;9.45;3.35;;;;;;;18.44;73.32;98048.97;5007977;28;20029;-76
2021/06/16 01:47:46;;;;;;;5.68;3.80;;;;;;;18.46;73.81;98048.59;4999175;28;20038;-75
2021/06/16 01:50:14;;;;;;;4.53;3.63;;;;;;;18.44;73.92;98056.47;5010466;28;20030;-75
2021/06/16 01:52:41;;;;;;;7.55;4.30;;;;;;;18.36;74.19;98055.41;4997351;28;20100;-75
2021/06/16 01:55:07;;;;;;;5.28;4.07;;;;;;;18.27;73.78;98057.47;4990780;28;20030;-76
2021/06/16 01:57:35;;;;;;;7.45;4.10;;;;;;;18.37;74.12;98058.97;4990805;28;20058;-75
2021/06/16 02:00:01;;;;;;;7.05;4.80;;;;;;;18.33;74.21;98055.28;4989128;28;20653;-75
2021/06/16 02:02:27;;;;;;;7.43;4.72;;;;;;;18.33;73.92;98046.97;4990781;28;20101;-75
2021/06/16 02:04:53;;;;;;;7.57;4.05;;;;;;;18.29;73.98;98059.91;5003941;28;20498;-75
2021/06/16 02:07:24;;;;;;;6.68;4.57;;;;;;;18.29;73.92;98046.88;5010257;28;20056;-75
2021/06/16 02:09:51;;;;;;;4.88;3.92;;;;;;;18.28;73.98;98052.75;5010382;28;20022;-74
2021/06/16 02:12:17;;;;;;;8.45;3.63;;;;;;;18.32;73.79;98043.41;5010212;28;20029;-74
2021/06/16 02:14:51;;;;;;;8.45;4.55;;;;;;;18.25;73.82;98039.59;5010025;28;20041;-75
2021/06/16 02:17:18;;;;;;;5.22;3.63;;;;;;;18.20;74.79;98052.47;4989222;28;20026;-75
2021/06/16 02:19:46;;;;;;;4.47;3.72;;;;;;;18.14;75.23;98042.78;4990646;28;20121;-74
2021/06/16 02:22:13;;;;;;;7.55;4.65;;;;;;;18.14;75.71;98051.09;4989202;28;20084;-75
2021/06/16 02:24:39;;;;;;;4.75;3.67;;;;;;;18.06;76.00;98051.19;4989411;28;20022;-75
2021/06/16 02:27:05;;;;;;;4.75;3.63;;;;;;;18.00;76.45;98047.84;4990860;28;20026;-75
2021/06/16 02:29:31;;;;;;;8.10;3.78;;;;;;;17.91;76.70;98046.28;4990901;28;20034;-75
2021/06/16 02:31:57;;;;;;;4.72;3.78;;;;;;;17.84;76.92;98049.63;4990565;28;20471;-78
2021/06/16 02:34:24;;;;;;;4.70;3.80;;;;;;;17.81;77.11;98044.75;4990561;28;20042;-75
2021/06/16 02:36:54;;;;;;;8.10;4.57;;;;;;;17.80;77.07;98036.78;4990544;28;20030;-76
2021/06/16 02:39:28;;;;;;;9.82;4.30;;;;;;;17.75;77.22;98050.84;4990363;28;20034;-75
2021/06/16 02:41:55;;;;;;;4.93;3.47;;;;;;;17.69;77.42;98047.47;5007338;28;20030;-75
2021/06/16 02:44:22;;;;;;;5.00;4.03;;;;;;;17.67;77.70;98044.22;5010181;28;20026;-76
2021/06/16 02:46:53;;;;;;;4.88;4.40;;;;;;;17.59;77.60;98043.16;4992146;28;20100;-77
2021/06/16 02:49:27;;;;;;;4.35;3.85;;;;;;;17.54;78.09;98050.84;4992417;28;20038;-75
2021/06/16 02:51:53;;;;;;;5.85;3.95;;;;;;;17.35;78.49;98039.44;5009586;28;20541;-75
2021/06/16 02:54:20;;;;;;;4.82;4.07;;;;;;;17.28;78.97;98037.22;5009912;28;20038;-76
2021/06/16 02:56:47;;;;;;;6.90;3.28;;;;;;;17.24;79.31;98033.50;4992969;28;20026;-77
2021/06/16 02:59:14;;;;;;;5.80;4.20;;;;;;;17.35;79.10;98047.75;5014036;28;20037;-77
2021/06/16 03:01:40;;;;;;;6.68;4.45;;;;;;;17.34;79.25;98046.13;5013437;28;20386;-76
2021/06/16 03:04:07;;;;;;;7.38;4.10;;;;;;;17.35;78.99;98047.75;5013453;28;20040;-77
2021/06/16 03:06:33;;;;;;;6.70;4.15;;;;;;;17.42;79.22;98048.81;5012882;28;20137;-75
2021/06/16 03:09:00;;;;;;;9.05;4.50;;;;;;;17.50;78.50;98052.66;4992740;28;20129;-76
2021/06/16 03:11:29;;;;;;;6.78;4.25;;;;;;;17.49;78.73;98053.78;4993799;28;20018;-75
2021/06/16 03:13:55;;;;;;;5.90;3.83;;;;;;;17.42;79.00;98048.00;4993608;28;20018;-75
2021/06/16 03:16:23;;;;;;;7.32;4.15;;;;;;;17.45;78.99;98058.38;4993508;28;20029;-75
2021/06/16 03:18:49;;;;;;;6.85;4.07;;;;;;;17.40;79.29;98056.63;4993565;28;20033;-76
2021/06/16 03:21:17;;;;;;;7.93;4.47;;;;;;;17.47;79.06;98061.63;4993194;28;20189;-77
2021/06/16 03:23:42;;;;;;;4.78;3.83;;;;;;;17.48;79.02;98066.00;4993619;28;20030;-77
2021/06/16 03:26:08;;;;;;;5.93;4.45;;;;;;;17.46;78.92;98047.00;4992095;28;20037;-76
2021/06/16 03:28:35;;;;;;;6.03;4.60;;;;;;;17.41;78.97;98049.97;4992564;28;20042;-75
2021/06/16 03:31:02;;;;;;;6.55;4.45;;;;;;;17.45;78.92;98058.38;4993219;28;20104;-75
2021/06/16 03:33:28;;;;;;;6.75;4.07;;;;;;;17.47;79.23;98067.16;5009707;28;20026;-75
2021/06/16 03:35:54;;;;;;;5.00;3.72;;;;;;;17.43;79.46;98060.69;4993125;28;20029;-75
2021/06/16 03:38:20;;;;;;;4.85;3.67;;;;;;;17.47;79.36;98067.16;4993053;28;20031;-74
2021/06/16 03:40:48;;;;;;;6.22;4.25;;;;;;;17.39;79.59;98065.25;4994753;28;20022;-75
2021/06/16 03:43:15;;;;;;;8.98;4.30;;;;;;;17.37;79.65;98073.09;5012966;28;20026;-75
2021/06/16 03:45:41;;;;;;;6.05;4.15;;;;;;;17.32;79.97;98062.25;4995065;28;20030;-74
2021/06/16 03:48:09;;;;;;;7.00;4.18;;;;;;;17.46;79.73;98077.41;5012561;28;20108;-75
2021/06/16 03:50:37;;;;;;;13.52;4.97;;;;;;;17.57;79.44;98078.66;5012773;28;20474;-76
2021/06/16 03:53:10;;;;;;;6.50;3.95;;;;;;;17.63;79.37;98076.50;4994928;28;20128;-75
2021/06/16 03:55:37;;;;;;;7.75;5.13;;;;;;;17.65;79.57;98066.72;5012706;28;20110;-74
2021/06/16 03:58:03;;;;;;;11.95;4.32;;;;;;;17.76;79.71;98072.63;4995425;28;20133;-75
2021/06/16 04:00:29;;;;;;;7.05;4.40;;;;;;;17.84;80.02;98070.94;5012326;28;20538;-76
2021/06/16 04:02:54;;;;;;;6.03;4.68;;;;;;;17.80;79.07;98065.28;4994450;28;20040;-76
2021/06/16 04:05:20;;;;;;;6.18;4.38;;;;;;;17.93;79.08;98077.19;4996860;28;20037;-76
2021/06/16 04:07:50;;;;;;;7.85;4.55;;;;;;;18.05;78.59;98083.59;4992405;28;20026;-77
2021/06/16 04:10:18;;;;;;;4.75;4.07;;;;;;;18.29;77.52;98080.09;4991805;28;20034;-75
2021/06/16 04:12:46;;;;;;;5.85;4.28;;;;;;;18.54;76.33;98072.69;4990527;28;20021;-78
2021/06/16 04:15:12;;;;;;;4.82;4.20;;;;;;;18.66;75.63;98069.91;4992474;28;20037;-76
2021/06/16 04:17:38;;;;;;;8.02;4.72;;;;;;;18.76;75.22;98069.47;4992601;28;20037;-75
2021/06/16 04:20:05;;;;;;;4.85;4.28;;;;;;;18.97;74.37;98064.63;4990986;28;20117;-76
2021/06/16 04:22:30;;;;;;;5.43;3.67;;;;;;;19.34;72.78;98072.88;4992444;28;20062;-75
2021/06/16 04:24:55;;;;;;;6.93;4.18;;;;;;;19.59;71.64;98071.69;4974759;28;20027;-79
2021/06/16 04:27:21;;;;;;;8.60;5.03;;;;;;;19.59;70.75;98071.69;4992566;28;20033;-76
2021/06/16 04:29:46;;;;;;;8.38;4.35;;;;;;;19.32;70.52;98070.47;4974760;28;20030;-78
2021/06/16 04:32:12;;;;;;;6.03;4.25;;;;;;;19.53;70.49;98075.88;4992045;28;20081;-75
2021/06/16 04:34:38;;;;;;;7.88;4.28;;;;;;;19.88;68.48;98079.72;4992262;28;20479;-77
2021/06/16 04:37:04;;;;;;;6.78;4.68;;;;;;;20.08;67.04;98083.44;4974625;28;20049;-79
2021/06/16 04:39:30;;;;;;;10.45;4.97;;;;;;;20.25;66.26;98078.38;4974754;28;20475;-75
2021/06/16 04:41:55;;;;;;;8.73;4.45;;;;;;;20.34;66.44;98071.88;5009007;28;20029;-74
2021/06/16 04:44:20;;;;;;;7.80;5.03;;;;;;;20.32;65.45;98068.66;5011649;28;20026;-75
2021/06/16 04:46:48;;;;;;;9.60;4.63;;;;;;;20.23;65.81;98077.94;5011461;28;20058;-77
2021/06/16 04:49:14;;;;;;;7.78;5.93;;;;;;;19.92;66.68;98069.53;5011360;28;20089;-75
2021/06/16 04:51:40;;;;;;;9.75;5.10;;;;;;;19.88;67.24;98090.00;5011411;28;20034;-77
2021/06/16 04:54:10;;;;;;;10.20;6.20;;;;;;;19.82;67.58;98078.34;5011596;28;20040;-78
2021/06/16 04:56:37;;;;;;;9.07;5.32;;;;;;;19.49;68.67;98080.50;5011553;28;20057;-77
2021/06/16 04:59:02;;;;;;;9.63;5.80;;;;;;;19.40;69.46;98079.84;4994935;28;20423;-76
2021/06/16 05:01:27;;;;;;;6.80;5.05;;;;;;;19.60;69.35;98081.66;4991476;28;20036;-76
2021/06/16 05:03:53;;;;;;;9.88;6.60;;;;;;;19.82;68.26;98081.13;4991830;28;20023;-78
2021/06/16 05:06:18;;;;;;;12.68;6.40;;;;;;;20.06;67.45;98083.78;4991739;28;20395;-76
2021/06/16 05:08:45;;;;;;;9.45;5.15;;;;;;;20.16;67.09;98074.94;4991552;28;20034;-78
2021/06/16 05:11:10;;;;;;;13.88;6.00;;;;;;;20.20;66.54;98078.63;4991506;28;20608;-78
2021/06/16 05:13:35;;;;;;;7.75;5.40;;;;;;;20.09;66.32;98080.31;4999939;28;20113;-76
2021/06/16 05:16:01;;;;;;;12.57;5.30;;;;;;;19.67;67.75;98081.88;5010836;28;20064;-76
2021/06/16 05:18:27;;;;;;;10.63;6.82;;;;;;;19.43;68.77;98070.81;5011171;28;20541;-76
2021/06/16 05:20:52;;;;;;;7.03;4.55;;;;;;;19.17;69.72;98074.75;4986676;28;20046;-75
2021/06/16 05:23:18;;;;;;;9.05;4.70;;;;;;;19.18;70.07;98079.16;4988178;28;20038;-75
2021/06/16 05:25:47;;;;;;;7.28;5.45;;;;;;;19.53;69.19;98073.09;4992608;28;20080;-74
2021/06/16 05:28:12;;;;;;;11.88;5.55;;;;;;;19.84;67.80;98084.34;4999505;28;20121;-73
2021/06/16 05:30:38;;;;;;;7.47;5.18;;;;;;;20.18;67.14;98085.69;4989606;28;20148;-71
2021/06/16 05:33:04;;;;;;;8.32;5.75;;;;;;;20.42;65.98;98087.59;4990848;28;20109;-73
2021/06/16 05:35:30;;;;;;;9.23;6.82;;;;;;;20.61;65.54;98090.47;4990844;28;20026;-73
2021/06/16 05:37:55;;;;;;;12.20;5.78;;;;;;;20.78;64.58;98087.31;4991111;28;20030;-74
2021/06/16 05:40:21;;;;;;;8.57;5.07;;;;;;;20.89;64.07;98082.84;4998225;28;20033;-73
2021/06/16 05:42:46;;;;;;;11.43;6.03;;;;;;;20.97;63.94;98084.63;4999712;28;20419;-74
2021/06/16 05:45:12;;;;;;;13.35;4.95;;;;;;;21.16;63.51;98086.72;4998451;28;20040;-78
2021/06/16 05:47:37;;;;;;;12.35;5.18;;;;;;;21.02;63.67;98070.44;4983045;28;20034;-74
2021/06/16 05:50:04;;;;;;;6.72;5.28;;;;;;;20.84;63.92;98072.78;4999688;28;20085;-75
2021/06/16 05:52:32;;;;;;;9.27;4.90;;;;;;;20.80;65.25;98076.66;4998880;28;20607;-78
2021/06/16 05:54:57;;;;;;;9.68;5.78;;;;;;;20.74;65.87;98083.66;4983068;28;20026;-76
2021/06/16 05:57:22;;;;;;;9.05;5.53;;;;;;;20.75;66.26;98076.94;4999353;28;20029;-76
2021/06/16 05:59:48;;;;;;;13.45;5.97;;;;;;;20.74;66.34;98065.00;4998830;28;20127;-76
2021/06/16 06:02:13;;;;;;;7.13;5.65;;;;;;;20.65;65.25;98063.56;4999999;28;20084;-78
2021/06/16 06:04:39;;;;;;;9.48;5.20;;;;;;;20.91;64.68;98074.94;4998932;28;20026;-77
2021/06/16 06:07:05;;;;;;;8.15;5.63;;;;;;;20.80;69.25;98073.88;4981877;28;20022;-76
2021/06/16 06:09:31;;;;;;;5.88;4.85;;;;;;;20.78;66.06;98067.88;5000508;28;20105;-76
2021/06/16 06:11:57;;;;;;;7.75;4.95;;;;;;;20.96;66.09;98080.22;4999440;28;20105;-76
2021/06/16 06:14:22;;;;;;;9.57;5.70;;;;;;;21.16;63.88;98076.38;5007598;28;20034;-78
2021/06/16 06:16:48;;;;;;;9.27;5.03;;;;;;;21.28;63.69;98079.06;5003876;28;20077;-77
2021/06/16 06:19:14;;;;;;;8.30;5.22;;;;;;;21.15;68.17;98082.31;4998374;28;20514;-75
2021/06/16 06:21:39;;;;;;;6.60;5.28;;;;;;;20.98;64.71;98083.47;5005866;28;20523;-77
2021/06/16 06:24:05;;;;;;;7.72;4.95;;;;;;;20.84;65.57;98077.53;4980425;28;20583;-75
2021/06/16 06:26:35;;;;;;;10.35;4.72;;;;;;;21.03;64.91;98080.41;4999170;28;20117;-77
2021/06/16 06:29:01;;;;;;;8.80;4.80;;;;;;;21.02;66.26;98073.22;5001113;28;20026;-79
2021/06/16 06:31:30;;;;;;;5.75;4.88;;;;;;;21.10;66.36;98080.63;4998530;28;20054;-77
2021/06/16 06:33:56;;;;;;;10.43;4.80;;;;;;;21.11;66.15;98073.88;5004220;28;20021;-76
2021/06/16 06:36:22;;;;;;;10.70;5.13;;;;;;;21.15;65.44;98074.75;5002733;28;20026;-75
2021/06/16 06:38:48;;;;;;;7.80;4.93;;;;;;;21.42;64.15;98078.59;4998183;28;20500;-74
2021/06/16 06:41:14;;;;;;;11.18;4.95;;;;;;;21.64;63.11;98071.50;4994717;28;20050;-74
2021/06/16 06:43:40;;;;;;;6.90;5.00;;;;;;;21.64;65.52;98065.94;4994807;28;20041;-75
2021/06/16 06:46:06;;;;;;;9.63;4.50;;;;;;;21.57;69.28;98061.03;4976884;28;20030;-75
2021/06/16 06:48:33;;;;;;;6.07;4.28;;;;;;;21.47;65.99;98069.13;4986245;28;20050;-75
2021/06/16 06:50:58;;;;;;;5.72;4.63;;;;;;;21.52;68.48;98060.50;4997207;28;20124;-76
2021/06/16 06:53:25;;;;;;;10.75;5.55;;;;;;;21.64;65.05;98063.97;5011581;28;20104;-76
2021/06/16 06:55:50;;;;;;;7.63;5.32;;;;;;;21.71;64.82;98057.72;5001501;28;20658;-77
2021/06/16 06:58:16;;;;;;;8.23;4.80;;;;;;;21.73;65.61;98063.75;5003565;28;20032;-78
2021/06/16 07:00:41;;;;;;;5.80;4.53;;;;;;;21.83;65.48;98066.72;5001371;28;20036;-74
2021/06/16 07:03:06;;;;;;;7.72;4.32;;;;;;;21.98;64.77;98070.66;5005051;28;20022;-75
2021/06/16 07:05:32;;;;;;;5.38;4.25;;;;;;;22.10;67.01;98056.56;5002808;28;20042;-76
2021/06/16 07:07:57;;;;;;;6.32;4.35;;;;;;;22.13;65.16;98058.63;5013102;28;20486;-76
2021/06/16 07:10:23;;;;;;;9.52;4.70;;;;;;;22.04;67.01;98060.03;5013421;28;20501;-75
2021/06/16 07:12:48;;;;;;;9.43;4.78;;;;;;;22.12;61.94;98057.00;4988561;28;20026;-76
2021/06/16 07:15:14;;;;;;;8.27;4.68;;;;;;;22.44;59.46;98057.63;4986547;28;20028;-75
2021/06/16 07:17:40;;;;;;;6.25;4.00;;;;;;;22.63;58.33;98054.78;5002313;28;20026;-75
2021/06/16 07:20:06;;;;;;;11.70;4.85;;;;;;;22.81;59.71;98055.91;5003911;28;20487;-76
2021/06/16 07:22:32;;;;;;;19.17;5.18;;;;;;;22.50;64.12;98056.13;5002946;28;20085;-75
2021/06/16 07:24:58;;;;;;;6.80;4.65;;;;;;;22.70;58.98;98057.72;5002092;28;20030;-76
2021/06/16 07:27:24;;;;;;;6.28;4.03;;;;;;;22.88;58.86;98061.63;5002012;28;20077;-75
2021/06/16 07:29:49;;;;;;;6.65;4.40;;;;;;;22.89;63.01;98046.50;5005816;28;20034;-74
2021/06/16 07:32:16;;;;;;;10.68;4.28;;;;;;;23.10;59.50;98048.00;5000947;28;20044;-74
2021/06/16 07:34:42;;;;;;;8.07;4.05;;;;;;;23.20;58.57;98038.97;5002277;28;20493;-75
2021/06/16 07:37:08;;;;;;;6.15;4.43;;;;;;;23.52;55.71;98056.22;5000692;28;20022;-74
2021/06/16 07:39:33;;;;;;;5.28;3.63;;;;;;;23.65;55.74;98052.03;5001328;28;20034;-74
2021/06/16 07:42:00;;;;;;;6.32;3.90;;;;;;;23.80;54.45;98053.81;4984414;28;20029;-75
2021/06/16 07:44:26;;;;;;;11.25;4.35;;;;;;;23.91;53.31;98047.16;5002844;28;20022;-74
2021/06/16 07:46:52;;;;;;;5.93;4.13;;;;;;;24.05;56.33;98056.91;4983717;28;20034;-76
2021/06/16 07:49:18;;;;;;;5.95;3.95;;;;;;;24.23;55.18;98053.16;4985138;28;20045;-75
2021/06/16 07:51:44;;;;;;;7.18;4.40;;;;;;;24.33;56.22;98048.88;5003061;28;20431;-75
2021/06/16 07:54:11;;;;;;;6.68;4.10;;;;;;;24.46;53.82;98047.44;4999808;28;20566;-74
2021/06/16 07:56:45;;;;;;;4.82;3.25;;;;;;;24.51;53.70;98044.25;4984667;28;20061;-77
2021/06/16 07:59:11;;;;;;;6.65;3.78;;;;;;;24.51;54.62;98041.47;4986383;28;20034;-75
2021/06/16 08:01:38;;;;;;;9.70;4.05;;;;;;;24.65;52.71;98046.41;5003935;28;20399;-75
2021/06/16 08:04:03;;;;;;;7.97;4.00;;;;;;;24.71;52.48;98045.66;5001645;28;20041;-75
2021/06/16 08:06:29;;;;;;;7.13;4.72;;;;;;;24.88;51.99;98044.22;5003719;28;20037;-74
2021/06/16 08:08:54;;;;;;;7.00;4.00;;;;;;;24.72;55.40;98046.44;5012960;28;20110;-78
2021/06/16 08:11:21;;;;;;;8.30;4.85;;;;;;;24.52;54.86;98043.91;5005467;28;20047;-74
2021/06/16 08:13:47;;;;;;;6.57;4.05;;;;;;;24.37;55.96;98035.75;5002920;28;20030;-77
2021/06/16 08:16:14;;;;;;;6.25;3.53;;;;;;;24.56;54.34;98043.91;5000807;28;20027;-74
2021/06/16 08:18:39;;;;;;;5.53;4.03;;;;;;;24.69;56.56;98042.44;5001551;28;20049;-76
2021/06/16 08:21:05;;;;;;;8.18;4.90;;;;;;;24.55;58.07;98044.31;5002338;28;20038;-75
2021/06/16 08:23:30;;;;;;;11.27;5.18;;;;;;;24.71;56.41;98034.47;4999877;28;20153;-73
2021/06/16 08:25:56;;;;;;;6.88;4.70;;;;;;;25.04;53.16;98030.75;4992486;28;20113;-74
2021/06/16 08:28:22;;;;;;;6.63;4.43;;;;;;;25.16;55.30;98038.84;4994501;28;20499;-75
2021/06/16 08:30:47;;;;;;;10.68;4.50;;;;;;;25.24;54.66;98048.13;5002811;28;20540;-77
2021/06/16 08:33:12;;;;;;;7.78;4.05;;;;;;;25.33;51.08;98035.38;4981620;28;20026;-74
2021/06/16 08:35:38;;;;;;;7.35;5.15;;;;;;;25.54;50.38;98041.13;4992561;28;20038;-75
2021/06/16 08:38:04;;;;;;;10.77;4.90;;;;;;;25.38;49.93;98039.78;4991356;28;20463;-75
2021/06/16 08:40:29;;;;;;;5.35;4.20;;;;;;;25.37;49.55;98035.41;4987315;28;20148;-78
2021/06/16 08:42:55;;;;;;;6.47;4.13;;;;;;;25.46;49.44;98036.66;4994891;28;20026;-76
2021/06/16 08:45:20;;;;;;;5.03;3.83;;;;;;;25.82;48.09;98031.25;5012677;28;20098;-79
2021/06/16 08:47:47;;;;;;;7.80;4.53;;;;;;;26.10;47.66;98036.97;5002930;28;20042;-75
2021/06/16 08:50:14;;;;;;;11.43;4.63;;;;;;;26.14;46.97;98036.97;5000589;28;20033;-79
2021/06/16 08:52:40;;;;;;;6.13;4.13;;;;;;;26.19;50.36;98039.44;4997039;28;20034;-74
2021/06/16 08:55:12;;;;;;;5.50;3.63;;;;;;;26.24;46.65;98039.84;4982744;28;20022;-78
2021/06/16 08:57:39;;;;;;;4.53;3.33;;;;;;;26.23;45.66;98035.44;5003708;28;20045;-74
2021/06/16 09:00:06;;;;;;;6.28;3.15;;;;;;;26.23;49.81;98032.63;5011845;28;20456;-74
2021/06/16 09:02:32;;;;;;;7.22;3.28;;;;;;;26.51;46.05;98029.06;4999597;28;20030;-73
2021/06/16 09:04:57;;;;;;;13.50;3.63;;;;;;;26.67;45.88;98037.94;4999647;28;20403;-75
2021/06/16 09:07:25;;;;;;;7.22;3.67;;;;;;;26.59;46.90;98033.50;4992305;28;20057;-74
2021/06/16 09:10:19;;;;;;;6.57;3.05;;;;;;;26.26;43.70;98039.44;4998868;28;20038;-75
2021/06/16 09:13:06;;;;;;;6.20;3.92;;;;;;;26.02;43.03;98035.34;5011790;28;20065;-75
2021/06/16 09:15:32;;;;;;;3.70;3.28;;;;;;;26.01;42.37;98030.94;5000563;28;20084;-79
2021/06/16 09:18:02;;;;;;;5.03;3.22;;;;;;;26.24;44.01;98037.06;5003539;28;20026;-77
2021/06/16 09:20:30;;;;;;;4.15;2.80;;;;;;;26.31;42.17;98030.66;5000025;28;20026;-79
2021/06/16 09:23:18;;;;;;;5.78;3.22;;;;;;;26.27;40.00;98033.44;4982673;28;20026;-81
2021/06/16 09:26:02;;;;;;;5.38;2.83;;;;;;;26.34;39.87;98033.47;5002133;28;20026;-78
2021/06/16 09:28:34;;;;;;;4.18;3.05;;;;;;;26.46;42.41;98032.28;5000471;28;20064;-76
2021/06/16 09:30:59;;;;;;;3.70;2.80;;;;;;;26.13;43.19;98024.94;4999616;28;20514;-77
2021/06/16 09:33:26;;;;;;;2.75;2.47;;;;;;;25.93;43.18;98032.09;5000332;28;20018;-78
2021/06/16 09:35:52;;;;;;;5.40;2.58;;;;;;;25.95;39.66;98024.91;5000815;28;20033;-77
2021/06/16 09:38:26;;;;;;;5.30;3.03;;;;;;;26.14;40.62;98031.38;5001655;28;20022;-78
2021/06/16 09:40:53;;;;;;;4.95;3.22;;;;;;;26.27;42.09;98030.66;5000648;28;20030;-79
2021/06/16 09:43:21;;;;;;;6.85;3.10;;;;;;;26.47;39.58;98033.91;4999223;28;20029;-77
2021/06/16 09:45:53;;;;;;;3.28;2.72;;;;;;;26.54;39.53;98026.28;4999987;28;20029;-78
2021/06/16 09:48:21;;;;;;;4.30;2.67;;;;;;;26.54;41.27;98026.28;4998739;28;20176;-79
2021/06/16 09:50:48;;;;;;;4.40;2.38;;;;;;;26.71;40.57;98029.50;5000034;28;20121;-78
2021/06/16 09:53:15;;;;;;;3.95;2.85;;;;;;;26.84;41.41;98025.94;5000604;28;20030;-77
2021/06/16 09:55:41;;;;;;;3.42;2.47;;;;;;;26.85;39.81;98032.34;4998808;28;20030;-78
2021/06/16 09:58:11;;;;;;;5.28;2.70;;;;;;;26.98;40.31;98030.75;5000459;28;20038;-77
2021/06/16 10:00:43;;;;;;;4.78;3.08;;;;;;;26.91;40.21;98031.53;4999103;28;20018;-77
2021/06/16 10:03:09;;;;;;;3.42;3.05;;;;;;;27.17;39.03;98027.53;5004880;28;20034;-78
2021/06/16 10:05:36;;;;;;;4.95;3.42;;;;;;;27.13;40.91;98021.09;5000039;28;20075;-78
2021/06/16 10:08:01;;;;;;;4.57;2.92;;;;;;;27.06;39.89;98032.34;4998032;28;20079;-78
2021/06/16 10:10:27;;;;;;;7.75;2.80;;;;;;;26.88;40.43;98031.53;5009770;28;20030;-78
2021/06/16 10:12:52;;;;;;;3.72;2.60;;;;;;;26.81;40.68;98025.94;4995578;28;20031;-78
2021/06/16 10:15:22;;;;;;;7.55;3.80;;;;;;;26.84;42.60;98022.31;5000440;28;20023;-78
2021/06/16 10:17:49;;;;;;;4.45;2.88;;;;;;;26.99;41.51;98038.78;5002385;28;20479;-77
2021/06/16 10:20:16;;;;;;;4.05;2.88;;;;;;;27.18;40.23;98015.09;5003711;28;20148;-79
2021/06/16 10:22:42;;;;;;;6.40;3.60;;;;;;;27.16;40.16;98019.50;5002621;28;20058;-77
2021/06/16 10:25:09;;;;;;;3.75;2.72;;;;;;;27.37;38.60;98017.47;5002388;28;20628;-77
2021/06/16 10:28:01;;;;;;;5.05;2.92;;;;;;;27.31;39.18;98015.47;4994022;28;20165;-78
2021/06/16 10:30:32;;;;;;;8.82;2.70;;;;;;;27.34;39.56;98015.47;5017831;28;20034;-77
2021/06/16 10:32:58;;;;;;;3.28;2.63;;;;;;;27.51;38.67;98014.63;4998971;28;20395;-77
2021/06/16 10:35:36;;;;;;;5.43;4.03;;;;;;;27.47;37.81;98011.03;5004814;28;20030;-77
2021/06/16 10:38:11;;;;;;;7.28;3.33;;;;;;;27.30;38.36;98014.66;5002454;28;20041;-77
2021/06/16 10:40:54;;;;;;;2.78;2.13;;;;;;;27.21;38.21;98005.03;4984155;28;20118;-78
2021/06/16 10:43:24;;;;;;;6.10;2.67;;;;;;;27.31;37.78;98012.66;5002100;28;20362;-77
2021/06/16 10:46:20;;;;;;;3.45;2.50;;;;;;;27.36;38.27;98007.41;5001738;28;20534;-78
2021/06/16 10:49:01;;;;;;;4.78;3.30;;;;;;;27.39;38.95;98001.00;4979237;28;20089;-78
2021/06/16 10:51:31;;;;;;;5.20;2.88;;;;;;;27.23;38.72;98003.44;4981756;28;20574;-76
2021/06/16 10:54:19;;;;;;;6.72;3.38;;;;;;;27.14;39.28;97997.41;4981024;28;20022;-76
2021/06/16 10:56:54;;;;;;;4.78;3.55;;;;;;;27.15;39.26;97999.03;4982442;28;20019;-78
2021/06/16 10:59:44;;;;;;;7.10;3.17;;;;;;;27.25;40.28;97998.22;4978750;28;20045;-77
2021/06/16 11:02:11;;;;;;;6.30;2.65;;;;;;;27.36;38.85;97995.38;4954750;28;20051;-76
2021/06/16 11:04:37;;;;;;;3.35;2.88;;;;;;;27.40;40.02;97985.75;4978234;28;20037;-78
2021/06/16 11:07:04;;;;;;;6.85;3.33;;;;;;;27.43;38.82;97984.97;4983945;28;20062;-78
2021/06/16 11:10:17;;;;;;;5.72;3.63;;;;;;;27.47;38.85;97984.94;4981267;28;20026;-77
2021/06/16 11:12:45;;;;;;;2.80;2.42;;;;;;;27.39;39.68;97989.75;4966839;28;20491;-77
2021/06/16 11:15:25;;;;;;;2.97;2.38;;;;;;;27.40;38.21;97988.56;4972456;28;20519;-78
2021/06/16 11:17:56;;;;;;;4.75;3.15;;;;;;;27.33;37.36;97982.94;4981806;28;20082;-74
2021/06/16 11:20:28;;;;;;;4.80;3.67;;;;;;;27.19;38.85;97987.78;4981766;28;20430;-75
2021/06/16 11:22:59;;;;;;;9.90;3.00;;;;;;;27.29;38.85;97987.75;4970755;28;20062;-77
2021/06/16 11:25:37;;;;;;;4.95;3.55;;;;;;;27.22;38.12;97984.97;4963674;28;20031;-74
2021/06/16 11:28:11;;;;;;;4.40;3.83;;;;;;;27.20;38.95;97976.13;4974250;28;20082;-78
2021/06/16 11:30:44;;;;;;;6.15;2.75;;;;;;;27.25;39.89;97967.31;4973231;28;20034;-79
2021/06/16 11:33:15;;;;;;;5.72;2.63;;;;;;;27.45;39.08;97965.66;4973392;28;20035;-77
2021/06/16 11:35:45;;;;;;;3.28;2.47;;;;;;;27.49;38.79;97966.47;4974911;28;20058;-74